sensor_id;sensor_type;location;lat;lon;timestamp;P1;durP1;ratioP1;P2;durP2;ratioP2
41568;SDS011;27283;52.504;13.358;2022-11-20T00:01:52;49.30;;;18.83;;
41568;SDS011;27283;52.504;13.358;2022-11-20T00:04:25;44.65;;;18.02;;
41568;SDS011;27283;52.504;13.358;2022-11-20T00:06:56;35.60;;;16.95;;
41568;SDS011;27283;52.504;13.358;2022-11-20T00:09:31;45.10;;;17.75;;
41568;SDS011;27283;52.504;13.358;2022-11-20T00:12:03;47.70;;;19.83;;
41568;SDS011;27283;52.504;13.358;2022-11-20T00:14:35;43.60;;;19.00;;
41568;SDS011;27283;52.504;13.358;2022-11-20T00:17:07;44.13;;;18.63;;
41568;SDS011;27283;52.504;13.358;2022-11-20T00:19:39;39.88;;;17.85;;
41568;SDS011;27283;52.504;13.358;2022-11-20T00:22:11;41.75;;;18.00;;
41568;SDS011;27283;52.504;13.358;2022-11-20T00:24:46;43.38;;;18.38;;
41568;SDS011;27283;52.504;13.358;2022-11-20T00:27:17;41.75;;;17.70;;
41568;SDS011;27283;52.504;13.358;2022-11-20T00:29:49;36.67;;;17.15;;
41568;SDS011;27283;52.504;13.358;2022-11-20T00:32:21;40.85;;;17.92;;
41568;SDS011;27283;52.504;13.358;2022-11-20T00:34:53;45.88;;;17.88;;
41568;SDS011;27283;52.504;13.358;2022-11-20T00:37:24;42.78;;;18.35;;
41568;SDS011;27283;52.504;13.358;2022-11-20T00:39:59;41.70;;;17.10;;
41568;SDS011;27283;52.504;13.358;2022-11-20T00:42:30;39.97;;;18.00;;
41568;SDS011;27283;52.504;13.358;2022-11-20T00:45:02;39.70;;;16.45;;
41568;SDS011;27283;52.504;13.358;2022-11-20T00:47:34;36.88;;;16.52;;
41568;SDS011;27283;52.504;13.358;2022-11-20T00:50:06;36.90;;;15.85;;
41568;SDS011;27283;52.504;13.358;2022-11-20T00:52:39;36.85;;;15.95;;
41568;SDS011;27283;52.504;13.358;2022-11-20T00:55:13;44.38;;;17.95;;
41568;SDS011;27283;52.504;13.358;2022-11-20T00:57:45;36.55;;;16.30;;
41568;SDS011;27283;52.504;13.358;2022-11-20T01:00:17;34.10;;;15.23;;
41568;SDS011;27283;52.504;13.358;2022-11-20T01:02:48;31.58;;;15.05;;
41568;SDS011;27283;52.504;13.358;2022-11-20T01:05:20;40.28;;;16.52;;
41568;SDS011;27283;52.504;13.358;2022-11-20T01:07:51;35.00;;;16.02;;
41568;SDS011;27283;52.504;13.358;2022-11-20T01:10:25;37.13;;;16.10;;
41568;SDS011;27283;52.504;13.358;2022-11-20T01:12:57;39.03;;;17.08;;
41568;SDS011;27283;52.504;13.358;2022-11-20T01:15:40;31.17;;;15.07;;
41568;SDS011;27283;52.504;13.358;2022-11-20T01:18:13;42.03;;;17.02;;
41568;SDS011;27283;52.504;13.358;2022-11-20T01:20:45;38.17;;;15.68;;
41568;SDS011;27283;52.504;13.358;2022-11-20T01:23:20;39.50;;;16.98;;
41568;SDS011;27283;52.504;13.358;2022-11-20T01:25:54;32.45;;;14.90;;
41568;SDS011;27283;52.504;13.358;2022-11-20T01:28:26;34.40;;;14.60;;
41568;SDS011;27283;52.504;13.358;2022-11-20T01:31:00;33.47;;;14.52;;
41568;SDS011;27283;52.504;13.358;2022-11-20T01:33:32;38.05;;;16.00;;
41568;SDS011;27283;52.504;13.358;2022-11-20T01:36:04;34.80;;;15.98;;
41568;SDS011;27283;52.504;13.358;2022-11-20T01:38:40;36.42;;;16.30;;
41568;SDS011;27283;52.504;13.358;2022-11-20T01:41:14;36.42;;;16.30;;
41568;SDS011;27283;52.504;13.358;2022-11-20T01:43:58;36.47;;;16.80;;
41568;SDS011;27283;52.504;13.358;2022-11-20T01:46:30;35.40;;;16.17;;
41568;SDS011;27283;52.504;13.358;2022-11-20T01:49:03;33.70;;;14.90;;
41568;SDS011;27283;52.504;13.358;2022-11-20T01:51:40;36.53;;;16.00;;
41568;SDS011;27283;52.504;13.358;2022-11-20T01:54:18;36.88;;;16.13;;
41568;SDS011;27283;52.504;13.358;2022-11-20T01:56:56;33.60;;;15.10;;
41568;SDS011;27283;52.504;13.358;2022-11-20T01:59:30;41.28;;;17.63;;
41568;SDS011;27283;52.504;13.358;2022-11-20T02:02:05;38.97;;;16.60;;
41568;SDS011;27283;52.504;13.358;2022-11-20T02:04:36;37.00;;;16.48;;
41568;SDS011;27283;52.504;13.358;2022-11-20T02:07:08;40.28;;;17.58;;
41568;SDS011;27283;52.504;13.358;2022-11-20T02:09:41;43.25;;;18.75;;
41568;SDS011;27283;52.504;13.358;2022-11-20T02:12:15;42.90;;;17.95;;
41568;SDS011;27283;52.504;13.358;2022-11-20T02:14:59;44.28;;;19.38;;
41568;SDS011;27283;52.504;13.358;2022-11-20T02:17:30;43.40;;;18.75;;
41568;SDS011;27283;52.504;13.358;2022-11-20T02:20:05;41.22;;;18.75;;
41568;SDS011;27283;52.504;13.358;2022-11-20T02:22:39;41.88;;;17.95;;
41568;SDS011;27283;52.504;13.358;2022-11-20T02:25:22;44.85;;;18.48;;
41568;SDS011;27283;52.504;13.358;2022-11-20T02:27:57;42.60;;;17.63;;
41568;SDS011;27283;52.504;13.358;2022-11-20T02:30:28;39.42;;;17.48;;
41568;SDS011;27283;52.504;13.358;2022-11-20T02:33:00;37.67;;;17.08;;
41568;SDS011;27283;52.504;13.358;2022-11-20T02:38:24;40.75;;;17.58;;
41568;SDS011;27283;52.504;13.358;2022-11-20T02:40:59;43.60;;;18.10;;
41568;SDS011;27283;52.504;13.358;2022-11-20T02:43:31;42.75;;;18.05;;
41568;SDS011;27283;52.504;13.358;2022-11-20T02:46:03;47.55;;;18.95;;
41568;SDS011;27283;52.504;13.358;2022-11-20T02:48:39;36.97;;;16.83;;
41568;SDS011;27283;52.504;13.358;2022-11-20T02:51:14;40.35;;;17.35;;
41568;SDS011;27283;52.504;13.358;2022-11-20T02:53:49;45.60;;;18.98;;
41568;SDS011;27283;52.504;13.358;2022-11-20T02:56:24;42.03;;;18.38;;
41568;SDS011;27283;52.504;13.358;2022-11-20T02:58:56;43.65;;;17.65;;
41568;SDS011;27283;52.504;13.358;2022-11-20T03:01:28;41.28;;;17.83;;
41568;SDS011;27283;52.504;13.358;2022-11-20T03:04:00;37.45;;;17.08;;
41568;SDS011;27283;52.504;13.358;2022-11-20T03:06:31;45.97;;;18.00;;
41568;SDS011;27283;52.504;13.358;2022-11-20T03:09:06;44.08;;;18.58;;
41568;SDS011;27283;52.504;13.358;2022-11-20T03:11:41;47.53;;;19.77;;
41568;SDS011;27283;52.504;13.358;2022-11-20T03:14:14;47.75;;;20.33;;
41568;SDS011;27283;52.504;13.358;2022-11-20T03:16:47;49.15;;;19.90;;
41568;SDS011;27283;52.504;13.358;2022-11-20T03:19:19;48.05;;;19.73;;
41568;SDS011;27283;52.504;13.358;2022-11-20T03:21:54;38.50;;;17.17;;
41568;SDS011;27283;52.504;13.358;2022-11-20T03:24:26;38.55;;;16.83;;
41568;SDS011;27283;52.504;13.358;2022-11-20T03:27:00;48.47;;;19.63;;
41568;SDS011;27283;52.504;13.358;2022-11-20T03:29:32;49.78;;;20.58;;
41568;SDS011;27283;52.504;13.358;2022-11-20T03:32:06;40.42;;;18.25;;
41568;SDS011;27283;52.504;13.358;2022-11-20T03:34:38;45.22;;;18.90;;
41568;SDS011;27283;52.504;13.358;2022-11-20T03:37:11;44.47;;;18.58;;
41568;SDS011;27283;52.504;13.358;2022-11-20T03:39:45;48.10;;;19.33;;
41568;SDS011;27283;52.504;13.358;2022-11-20T03:42:23;45.60;;;19.40;;
41568;SDS011;27283;52.504;13.358;2022-11-20T03:45:08;45.88;;;19.60;;
41568;SDS011;27283;52.504;13.358;2022-11-20T03:47:40;54.92;;;21.42;;
41568;SDS011;27283;52.504;13.358;2022-11-20T03:50:13;42.45;;;18.10;;
41568;SDS011;27283;52.504;13.358;2022-11-20T03:52:44;42.60;;;18.35;;
41568;SDS011;27283;52.504;13.358;2022-11-20T03:55:17;39.33;;;16.60;;
41568;SDS011;27283;52.504;13.358;2022-11-20T03:57:51;43.38;;;18.77;;
41568;SDS011;27283;52.504;13.358;2022-11-20T04:00:23;37.47;;;17.33;;
41568;SDS011;27283;52.504;13.358;2022-11-20T04:02:57;37.75;;;17.65;;
41568;SDS011;27283;52.504;13.358;2022-11-20T04:05:29;38.28;;;17.23;;
41568;SDS011;27283;52.504;13.358;2022-11-20T04:08:04;40.80;;;17.70;;
41568;SDS011;27283;52.504;13.358;2022-11-20T04:10:37;42.75;;;18.55;;
41568;SDS011;27283;52.504;13.358;2022-11-20T04:13:12;40.92;;;17.85;;
41568;SDS011;27283;52.504;13.358;2022-11-20T04:15:44;44.00;;;19.05;;
41568;SDS011;27283;52.504;13.358;2022-11-20T04:18:15;46.83;;;19.27;;
41568;SDS011;27283;52.504;13.358;2022-11-20T04:20:47;43.88;;;17.90;;
41568;SDS011;27283;52.504;13.358;2022-11-20T04:23:19;39.15;;;17.88;;
41568;SDS011;27283;52.504;13.358;2022-11-20T04:26:00;44.17;;;18.33;;
41568;SDS011;27283;52.504;13.358;2022-11-20T04:28:38;47.65;;;21.73;;
41568;SDS011;27283;52.504;13.358;2022-11-20T04:31:12;45.35;;;19.35;;
41568;SDS011;27283;52.504;13.358;2022-11-20T04:33:45;47.97;;;20.15;;
41568;SDS011;27283;52.504;13.358;2022-11-20T04:36:21;43.58;;;18.95;;
41568;SDS011;27283;52.504;13.358;2022-11-20T04:38:55;49.13;;;20.48;;
41568;SDS011;27283;52.504;13.358;2022-11-20T04:41:32;45.60;;;20.10;;
41568;SDS011;27283;52.504;13.358;2022-11-20T04:44:17;44.50;;;18.73;;
41568;SDS011;27283;52.504;13.358;2022-11-20T04:46:49;44.35;;;18.45;;
41568;SDS011;27283;52.504;13.358;2022-11-20T04:49:21;42.28;;;19.02;;
41568;SDS011;27283;52.504;13.358;2022-11-20T04:51:53;43.40;;;19.25;;
41568;SDS011;27283;52.504;13.358;2022-11-20T04:54:25;45.90;;;19.33;;
41568;SDS011;27283;52.504;13.358;2022-11-20T04:56:57;43.78;;;19.08;;
41568;SDS011;27283;52.504;13.358;2022-11-20T04:59:32;46.25;;;19.90;;
41568;SDS011;27283;52.504;13.358;2022-11-20T05:02:10;50.58;;;20.67;;
41568;SDS011;27283;52.504;13.358;2022-11-20T05:04:42;46.10;;;19.42;;
41568;SDS011;27283;52.504;13.358;2022-11-20T05:07:14;40.58;;;19.33;;
41568;SDS011;27283;52.504;13.358;2022-11-20T05:09:47;43.03;;;19.02;;
41568;SDS011;27283;52.504;13.358;2022-11-20T05:12:33;51.20;;;20.85;;
41568;SDS011;27283;52.504;13.358;2022-11-20T05:15:09;45.78;;;19.77;;
41568;SDS011;27283;52.504;13.358;2022-11-20T05:17:41;50.83;;;21.27;;
41568;SDS011;27283;52.504;13.358;2022-11-20T05:20:18;44.67;;;19.40;;
41568;SDS011;27283;52.504;13.358;2022-11-20T05:22:51;51.47;;;20.25;;
41568;SDS011;27283;52.504;13.358;2022-11-20T05:25:22;44.10;;;20.10;;
41568;SDS011;27283;52.504;13.358;2022-11-20T05:27:54;52.60;;;20.65;;
41568;SDS011;27283;52.504;13.358;2022-11-20T05:30:29;45.35;;;19.98;;
41568;SDS011;27283;52.504;13.358;2022-11-20T05:33:01;47.17;;;19.98;;
41568;SDS011;27283;52.504;13.358;2022-11-20T05:38:43;45.90;;;18.73;;
41568;SDS011;27283;52.504;13.358;2022-11-20T05:41:18;49.95;;;20.58;;
41568;SDS011;27283;52.504;13.358;2022-11-20T05:43:51;45.13;;;19.38;;
41568;SDS011;27283;52.504;13.358;2022-11-20T05:46:26;44.60;;;19.40;;
41568;SDS011;27283;52.504;13.358;2022-11-20T05:48:58;54.80;;;21.88;;
41568;SDS011;27283;52.504;13.358;2022-11-20T05:51:30;39.40;;;18.20;;
41568;SDS011;27283;52.504;13.358;2022-11-20T05:54:02;50.88;;;20.15;;
41568;SDS011;27283;52.504;13.358;2022-11-20T05:56:34;47.00;;;19.50;;
41568;SDS011;27283;52.504;13.358;2022-11-20T05:59:06;50.60;;;20.35;;
41568;SDS011;27283;52.504;13.358;2022-11-20T06:01:42;42.67;;;19.05;;
41568;SDS011;27283;52.504;13.358;2022-11-20T06:04:14;41.22;;;18.67;;
41568;SDS011;27283;52.504;13.358;2022-11-20T06:06:46;40.95;;;17.63;;
41568;SDS011;27283;52.504;13.358;2022-11-20T06:09:18;40.70;;;18.33;;
41568;SDS011;27283;52.504;13.358;2022-11-20T06:11:50;39.38;;;17.90;;
41568;SDS011;27283;52.504;13.358;2022-11-20T06:14:22;47.83;;;18.83;;
41568;SDS011;27283;52.504;13.358;2022-11-20T06:16:57;41.25;;;18.70;;
41568;SDS011;27283;52.504;13.358;2022-11-20T06:19:29;46.38;;;19.13;;
41568;SDS011;27283;52.504;13.358;2022-11-20T06:22:01;45.78;;;19.42;;
41568;SDS011;27283;52.504;13.358;2022-11-20T06:24:33;45.13;;;19.33;;
41568;SDS011;27283;52.504;13.358;2022-11-20T06:27:05;41.67;;;18.83;;
41568;SDS011;27283;52.504;13.358;2022-11-20T06:29:37;46.85;;;19.25;;
41568;SDS011;27283;52.504;13.358;2022-11-20T06:32:12;44.55;;;19.75;;
41568;SDS011;27283;52.504;13.358;2022-11-20T06:34:44;42.70;;;19.02;;
41568;SDS011;27283;52.504;13.358;2022-11-20T06:37:16;43.55;;;18.80;;
41568;SDS011;27283;52.504;13.358;2022-11-20T06:39:48;37.65;;;17.33;;
41568;SDS011;27283;52.504;13.358;2022-11-20T06:42:20;42.58;;;19.02;;
41568;SDS011;27283;52.504;13.358;2022-11-20T06:44:52;39.47;;;17.77;;
41568;SDS011;27283;52.504;13.358;2022-11-20T06:47:27;46.33;;;18.98;;
41568;SDS011;27283;52.504;13.358;2022-11-20T06:49:59;46.83;;;19.70;;
41568;SDS011;27283;52.504;13.358;2022-11-20T06:52:32;43.13;;;18.00;;
41568;SDS011;27283;52.504;13.358;2022-11-20T06:55:10;45.15;;;19.70;;
41568;SDS011;27283;52.504;13.358;2022-11-20T06:57:43;44.83;;;18.92;;
41568;SDS011;27283;52.504;13.358;2022-11-20T07:00:20;40.72;;;18.20;;
41568;SDS011;27283;52.504;13.358;2022-11-20T07:03:00;43.85;;;19.38;;
41568;SDS011;27283;52.504;13.358;2022-11-20T07:05:34;39.05;;;17.33;;
41568;SDS011;27283;52.504;13.358;2022-11-20T07:08:08;44.60;;;20.08;;
41568;SDS011;27283;52.504;13.358;2022-11-20T07:10:41;47.58;;;19.73;;
41568;SDS011;27283;52.504;13.358;2022-11-20T07:13:13;42.03;;;19.17;;
41568;SDS011;27283;52.504;13.358;2022-11-20T07:15:46;45.83;;;19.83;;
41568;SDS011;27283;52.504;13.358;2022-11-20T07:18:21;40.42;;;18.77;;
41568;SDS011;27283;52.504;13.358;2022-11-20T07:20:53;41.67;;;17.95;;
41568;SDS011;27283;52.504;13.358;2022-11-20T07:23:26;44.10;;;18.92;;
41568;SDS011;27283;52.504;13.358;2022-11-20T07:25:58;45.35;;;19.65;;
41568;SDS011;27283;52.504;13.358;2022-11-20T07:28:35;42.38;;;18.92;;
41568;SDS011;27283;52.504;13.358;2022-11-20T07:31:08;46.33;;;20.33;;
41568;SDS011;27283;52.504;13.358;2022-11-20T07:33:49;42.92;;;19.15;;
41568;SDS011;27283;52.504;13.358;2022-11-20T07:36:21;43.83;;;20.08;;
41568;SDS011;27283;52.504;13.358;2022-11-20T07:38:54;43.58;;;19.13;;
41568;SDS011;27283;52.504;13.358;2022-11-20T07:41:26;48.22;;;19.95;;
41568;SDS011;27283;52.504;13.358;2022-11-20T07:43:59;48.30;;;20.88;;
41568;SDS011;27283;52.504;13.358;2022-11-20T07:46:31;45.65;;;19.88;;
41568;SDS011;27283;52.504;13.358;2022-11-20T07:49:08;39.60;;;17.45;;
41568;SDS011;27283;52.504;13.358;2022-11-20T07:51:40;45.58;;;20.40;;
41568;SDS011;27283;52.504;13.358;2022-11-20T07:54:17;42.85;;;19.65;;
41568;SDS011;27283;52.504;13.358;2022-11-20T07:56:50;47.63;;;20.48;;
41568;SDS011;27283;52.504;13.358;2022-11-20T07:59:22;47.28;;;19.55;;
41568;SDS011;27283;52.504;13.358;2022-11-20T08:01:54;40.30;;;18.33;;
41568;SDS011;27283;52.504;13.358;2022-11-20T08:04:30;43.30;;;18.67;;
41568;SDS011;27283;52.504;13.358;2022-11-20T08:07:02;42.50;;;18.45;;
41568;SDS011;27283;52.504;13.358;2022-11-20T08:09:35;46.67;;;20.05;;
41568;SDS011;27283;52.504;13.358;2022-11-20T08:12:07;42.17;;;18.60;;
41568;SDS011;27283;52.504;13.358;2022-11-20T08:14:53;44.67;;;19.63;;
41568;SDS011;27283;52.504;13.358;2022-11-20T08:17:27;41.63;;;16.95;;
41568;SDS011;27283;52.504;13.358;2022-11-20T08:20:03;43.47;;;18.55;;
41568;SDS011;27283;52.504;13.358;2022-11-20T08:22:36;50.47;;;21.23;;
41568;SDS011;27283;52.504;13.358;2022-11-20T08:25:09;41.17;;;19.70;;
41568;SDS011;27283;52.504;13.358;2022-11-20T08:27:41;41.67;;;19.75;;
41568;SDS011;27283;52.504;13.358;2022-11-20T08:30:13;42.20;;;19.02;;
41568;SDS011;27283;52.504;13.358;2022-11-20T08:32:46;42.35;;;18.92;;
41568;SDS011;27283;52.504;13.358;2022-11-20T08:35:21;43.63;;;19.20;;
41568;SDS011;27283;52.504;13.358;2022-11-20T08:37:53;43.45;;;19.70;;
41568;SDS011;27283;52.504;13.358;2022-11-20T08:40:26;48.28;;;20.17;;
41568;SDS011;27283;52.504;13.358;2022-11-20T08:42:58;42.05;;;19.17;;
41568;SDS011;27283;52.504;13.358;2022-11-20T08:45:31;40.42;;;18.40;;
41568;SDS011;27283;52.504;13.358;2022-11-20T08:48:04;47.80;;;19.35;;
41568;SDS011;27283;52.504;13.358;2022-11-20T08:50:40;42.40;;;18.58;;
41568;SDS011;27283;52.504;13.358;2022-11-20T08:53:12;44.10;;;19.95;;
41568;SDS011;27283;52.504;13.358;2022-11-20T08:55:44;43.95;;;19.23;;
41568;SDS011;27283;52.504;13.358;2022-11-20T08:58:17;43.67;;;19.60;;
41568;SDS011;27283;52.504;13.358;2022-11-20T09:00:49;43.42;;;19.38;;
41568;SDS011;27283;52.504;13.358;2022-11-20T09:03:21;44.28;;;19.55;;
41568;SDS011;27283;52.504;13.358;2022-11-20T09:06:04;43.63;;;18.48;;
41568;SDS011;27283;52.504;13.358;2022-11-20T09:08:38;41.90;;;18.27;;
41568;SDS011;27283;52.504;13.358;2022-11-20T09:11:11;42.95;;;19.15;;
41568;SDS011;27283;52.504;13.358;2022-11-20T09:13:44;44.63;;;19.83;;
41568;SDS011;27283;52.504;13.358;2022-11-20T09:16:17;41.35;;;17.75;;
41568;SDS011;27283;52.504;13.358;2022-11-20T09:18:51;39.70;;;18.58;;
41568;SDS011;27283;52.504;13.358;2022-11-20T09:21:47;38.58;;;18.45;;
41568;SDS011;27283;52.504;13.358;2022-11-20T09:24:27;47.08;;;20.25;;
41568;SDS011;27283;52.504;13.358;2022-11-20T09:27:04;46.80;;;19.38;;
41568;SDS011;27283;52.504;13.358;2022-11-20T09:30:15;44.67;;;19.35;;
41568;SDS011;27283;52.504;13.358;2022-11-20T09:32:48;40.05;;;18.38;;
41568;SDS011;27283;52.504;13.358;2022-11-20T09:35:21;43.33;;;19.73;;
41568;SDS011;27283;52.504;13.358;2022-11-20T09:37:57;46.58;;;19.85;;
41568;SDS011;27283;52.504;13.358;2022-11-20T09:40:30;42.17;;;18.23;;
41568;SDS011;27283;52.504;13.358;2022-11-20T09:43:06;41.80;;;17.45;;
41568;SDS011;27283;52.504;13.358;2022-11-20T09:45:53;42.95;;;18.75;;
41568;SDS011;27283;52.504;13.358;2022-11-20T09:48:36;40.33;;;17.50;;
41568;SDS011;27283;52.504;13.358;2022-11-20T09:51:28;38.63;;;17.55;;
41568;SDS011;27283;52.504;13.358;2022-11-20T09:54:18;45.80;;;19.75;;
41568;SDS011;27283;52.504;13.358;2022-11-20T09:56:53;40.95;;;18.58;;
41568;SDS011;27283;52.504;13.358;2022-11-20T09:59:31;40.35;;;18.60;;
41568;SDS011;27283;52.504;13.358;2022-11-20T10:02:14;33.95;;;15.93;;
41568;SDS011;27283;52.504;13.358;2022-11-20T10:04:51;39.22;;;17.55;;
41568;SDS011;27283;52.504;13.358;2022-11-20T10:07:30;40.38;;;17.95;;
41568;SDS011;27283;52.504;13.358;2022-11-20T10:10:18;39.83;;;17.38;;
41568;SDS011;27283;52.504;13.358;2022-11-20T10:13:05;40.85;;;18.48;;
41568;SDS011;27283;52.504;13.358;2022-11-20T10:15:53;40.90;;;16.85;;
41568;SDS011;27283;52.504;13.358;2022-11-20T10:18:39;42.13;;;18.05;;
41568;SDS011;27283;52.504;13.358;2022-11-20T10:21:23;39.63;;;18.05;;
41568;SDS011;27283;52.504;13.358;2022-11-20T10:24:06;36.80;;;17.77;;
41568;SDS011;27283;52.504;13.358;2022-11-20T10:27:08;37.45;;;18.13;;
41568;SDS011;27283;52.504;13.358;2022-11-20T10:30:07;44.00;;;20.33;;
41568;SDS011;27283;52.504;13.358;2022-11-20T10:32:43;39.05;;;18.33;;
41568;SDS011;27283;52.504;13.358;2022-11-20T10:35:20;41.47;;;20.05;;
41568;SDS011;27283;52.504;13.358;2022-11-20T10:37:58;38.60;;;18.33;;
41568;SDS011;27283;52.504;13.358;2022-11-20T10:40:34;43.08;;;18.95;;
41568;SDS011;27283;52.504;13.358;2022-11-20T10:43:16;42.13;;;19.02;;
41568;SDS011;27283;52.504;13.358;2022-11-20T10:45:53;35.33;;;17.63;;
41568;SDS011;27283;52.504;13.358;2022-11-20T10:48:31;34.17;;;16.05;;
41568;SDS011;27283;52.504;13.358;2022-11-20T10:51:10;39.75;;;17.15;;
41568;SDS011;27283;52.504;13.358;2022-11-20T10:53:55;35.42;;;17.23;;
41568;SDS011;27283;52.504;13.358;2022-11-20T10:56:38;37.20;;;17.60;;
41568;SDS011;27283;52.504;13.358;2022-11-20T11:02:23;37.03;;;17.60;;
41568;SDS011;27283;52.504;13.358;2022-11-20T11:05:10;36.80;;;17.58;;
41568;SDS011;27283;52.504;13.358;2022-11-20T11:07:59;37.08;;;16.58;;
41568;SDS011;27283;52.504;13.358;2022-11-20T11:10:33;32.38;;;15.90;;
41568;SDS011;27283;52.504;13.358;2022-11-20T11:13:19;36.60;;;18.15;;
41568;SDS011;27283;52.504;13.358;2022-11-20T11:15:53;35.30;;;17.55;;
41568;SDS011;27283;52.504;13.358;2022-11-20T11:18:29;35.03;;;16.73;;
41568;SDS011;27283;52.504;13.358;2022-11-20T11:21:04;33.28;;;16.83;;
41568;SDS011;27283;52.504;13.358;2022-11-20T11:23:38;30.25;;;16.35;;
41568;SDS011;27283;52.504;13.358;2022-11-20T11:26:18;31.10;;;16.10;;
41568;SDS011;27283;52.504;13.358;2022-11-20T11:29:01;28.13;;;15.00;;
41568;SDS011;27283;52.504;13.358;2022-11-20T11:31:35;33.35;;;15.57;;
41568;SDS011;27283;52.504;13.358;2022-11-20T11:34:12;32.97;;;14.63;;
41568;SDS011;27283;52.504;13.358;2022-11-20T11:36:49;34.67;;;15.35;;
41568;SDS011;27283;52.504;13.358;2022-11-20T11:39:28;39.63;;;15.20;;
41568;SDS011;27283;52.504;13.358;2022-11-20T11:42:04;32.90;;;13.90;;
41568;SDS011;27283;52.504;13.358;2022-11-20T11:44:37;33.35;;;16.92;;
41568;SDS011;27283;52.504;13.358;2022-11-20T11:47:29;35.08;;;15.30;;
41568;SDS011;27283;52.504;13.358;2022-11-20T11:50:20;35.97;;;15.63;;
41568;SDS011;27283;52.504;13.358;2022-11-20T11:52:56;34.60;;;16.20;;
41568;SDS011;27283;52.504;13.358;2022-11-20T11:55:39;32.90;;;15.48;;
41568;SDS011;27283;52.504;13.358;2022-11-20T11:58:21;36.25;;;16.50;;
41568;SDS011;27283;52.504;13.358;2022-11-20T12:01:16;31.40;;;14.23;;
41568;SDS011;27283;52.504;13.358;2022-11-20T12:03:59;34.17;;;16.17;;
41568;SDS011;27283;52.504;13.358;2022-11-20T12:06:42;38.83;;;17.33;;
41568;SDS011;27283;52.504;13.358;2022-11-20T12:09:18;35.90;;;15.13;;
41568;SDS011;27283;52.504;13.358;2022-11-20T12:11:55;34.50;;;16.23;;
41568;SDS011;27283;52.504;13.358;2022-11-20T12:14:36;33.25;;;15.45;;
41568;SDS011;27283;52.504;13.358;2022-11-20T12:17:12;31.58;;;15.15;;
41568;SDS011;27283;52.504;13.358;2022-11-20T12:20:10;36.92;;;15.40;;
41568;SDS011;27283;52.504;13.358;2022-11-20T12:22:50;29.17;;;13.75;;
41568;SDS011;27283;52.504;13.358;2022-11-20T12:25:29;32.22;;;14.68;;
41568;SDS011;27283;52.504;13.358;2022-11-20T12:28:26;29.08;;;13.73;;
41568;SDS011;27283;52.504;13.358;2022-11-20T12:31:13;28.02;;;13.32;;
41568;SDS011;27283;52.504;13.358;2022-11-20T12:33:59;31.15;;;13.52;;
41568;SDS011;27283;52.504;13.358;2022-11-20T12:36:41;27.92;;;12.85;;
41568;SDS011;27283;52.504;13.358;2022-11-20T12:39:35;26.40;;;12.07;;
41568;SDS011;27283;52.504;13.358;2022-11-20T12:42:16;22.35;;;12.10;;
41568;SDS011;27283;52.504;13.358;2022-11-20T12:48:29;23.15;;;11.15;;
41568;SDS011;27283;52.504;13.358;2022-11-20T12:51:30;22.95;;;11.00;;
41568;SDS011;27283;52.504;13.358;2022-11-20T12:54:27;21.95;;;11.07;;
41568;SDS011;27283;52.504;13.358;2022-11-20T12:57:28;22.77;;;10.93;;
41568;SDS011;27283;52.504;13.358;2022-11-20T13:00:12;20.45;;;10.15;;
41568;SDS011;27283;52.504;13.358;2022-11-20T13:03:03;23.95;;;11.15;;
41568;SDS011;27283;52.504;13.358;2022-11-20T13:05:59;24.77;;;11.07;;
41568;SDS011;27283;52.504;13.358;2022-11-20T13:08:41;24.10;;;10.07;;
41568;SDS011;27283;52.504;13.358;2022-11-20T13:11:23;27.35;;;11.82;;
41568;SDS011;27283;52.504;13.358;2022-11-20T13:14:09;23.42;;;11.32;;
41568;SDS011;27283;52.504;13.358;2022-11-20T13:16:54;23.83;;;11.63;;
41568;SDS011;27283;52.504;13.358;2022-11-20T13:19:33;22.15;;;10.90;;
41568;SDS011;27283;52.504;13.358;2022-11-20T13:22:07;23.42;;;11.88;;
41568;SDS011;27283;52.504;13.358;2022-11-20T13:24:50;24.17;;;11.98;;
41568;SDS011;27283;52.504;13.358;2022-11-20T13:27:25;25.52;;;11.73;;
41568;SDS011;27283;52.504;13.358;2022-11-20T13:30:01;25.63;;;12.48;;
41568;SDS011;27283;52.504;13.358;2022-11-20T13:32:50;24.73;;;12.20;;
41568;SDS011;27283;52.504;13.358;2022-11-20T13:35:26;28.27;;;12.27;;
41568;SDS011;27283;52.504;13.358;2022-11-20T13:38:08;25.67;;;11.75;;
41568;SDS011;27283;52.504;13.358;2022-11-20T13:40:50;26.05;;;11.95;;
41568;SDS011;27283;52.504;13.358;2022-11-20T13:43:33;23.17;;;11.40;;
41568;SDS011;27283;52.504;13.358;2022-11-20T13:46:09;24.77;;;11.23;;
41568;SDS011;27283;52.504;13.358;2022-11-20T13:48:42;23.40;;;11.60;;
41568;SDS011;27283;52.504;13.358;2022-11-20T13:51:22;24.00;;;11.13;;
41568;SDS011;27283;52.504;13.358;2022-11-20T13:54:17;25.77;;;10.75;;
41568;SDS011;27283;52.504;13.358;2022-11-20T13:57:16;26.42;;;11.30;;
41568;SDS011;27283;52.504;13.358;2022-11-20T14:00:13;23.38;;;10.90;;
41568;SDS011;27283;52.504;13.358;2022-11-20T14:02:51;23.35;;;11.00;;
41568;SDS011;27283;52.504;13.358;2022-11-20T14:06:11;24.92;;;10.27;;
41568;SDS011;27283;52.504;13.358;2022-11-20T14:08:50;27.42;;;10.95;;
41568;SDS011;27283;52.504;13.358;2022-11-20T14:11:23;23.42;;;11.32;;
41568;SDS011;27283;52.504;13.358;2022-11-20T14:13:58;22.35;;;10.98;;
41568;SDS011;27283;52.504;13.358;2022-11-20T14:16:35;21.00;;;10.73;;
41568;SDS011;27283;52.504;13.358;2022-11-20T14:19:23;20.90;;;10.00;;
41568;SDS011;27283;52.504;13.358;2022-11-20T14:22:10;23.42;;;10.70;;
41568;SDS011;27283;52.504;13.358;2022-11-20T14:25:19;24.30;;;10.55;;
41568;SDS011;27283;52.504;13.358;2022-11-20T14:27:56;23.70;;;10.75;;
41568;SDS011;27283;52.504;13.358;2022-11-20T14:30:43;21.40;;;9.88;;
41568;SDS011;27283;52.504;13.358;2022-11-20T14:33:21;23.23;;;10.10;;
41568;SDS011;27283;52.504;13.358;2022-11-20T14:35:57;20.42;;;8.88;;
41568;SDS011;27283;52.504;13.358;2022-11-20T14:38:31;23.30;;;10.85;;
41568;SDS011;27283;52.504;13.358;2022-11-20T14:41:07;24.70;;;11.20;;
41568;SDS011;27283;52.504;13.358;2022-11-20T14:43:40;25.75;;;11.52;;
41568;SDS011;27283;52.504;13.358;2022-11-20T14:46:20;27.58;;;12.48;;
41568;SDS011;27283;52.504;13.358;2022-11-20T14:48:57;29.08;;;13.02;;
41568;SDS011;27283;52.504;13.358;2022-11-20T14:51:34;25.38;;;12.95;;
41568;SDS011;27283;52.504;13.358;2022-11-20T14:54:10;24.55;;;12.88;;
41568;SDS011;27283;52.504;13.358;2022-11-20T14:56:53;29.40;;;12.57;;
41568;SDS011;27283;52.504;13.358;2022-11-20T14:59:27;25.80;;;11.85;;
41568;SDS011;27283;52.504;13.358;2022-11-20T15:02:01;25.17;;;11.82;;
41568;SDS011;27283;52.504;13.358;2022-11-20T15:04:47;28.98;;;12.48;;
41568;SDS011;27283;52.504;13.358;2022-11-20T15:07:24;27.67;;;12.77;;
41568;SDS011;27283;52.504;13.358;2022-11-20T15:10:32;27.05;;;12.35;;
41568;SDS011;27283;52.504;13.358;2022-11-20T15:13:10;26.42;;;11.93;;
41568;SDS011;27283;52.504;13.358;2022-11-20T15:15:46;26.48;;;11.80;;
41568;SDS011;27283;52.504;13.358;2022-11-20T15:18:21;21.67;;;11.25;;